X  CloseMetar Aviation Weather Data     EGGD Bristol International

Temperature

9°C Temperature

2°C Dewpoint

62% Humidity



Wind

11 KM/H

 7 MPH

 3 M/S

 6 KTS



70°
East North
East
Current Conditions

Clear Clear
Pressure 1025.92 (hPa) - 30.3 (in)
Visibility 6.2 (mi) - 10 (km)
Airport
Airport-code EGGD

Location Bristol International 9 (mi)

Metar:
EGGD 080050Z AUTO 07006KT 9999 NCD 09/02 Q1026

Time: 2020-04-08 01:50